createdAt,value
2019-01-24T00:05:27.138Z,221.80
2019-01-24T00:11:57.334Z,224.03
2019-01-24T00:15:21.498Z,216.73
2019-01-24T00:21:52.124Z,217.40
2019-01-24T00:24:41.870Z,218.52
2019-01-24T00:31:12.379Z,215.10
2019-01-24T00:37:43.603Z,222.00
2019-01-24T00:40:18.549Z,217.70
2019-01-24T00:46:49.310Z,219.15
2019-01-24T00:53:20.375Z,224.42
2019-01-24T00:59:51.177Z,221.25
2019-01-24T01:03:15.734Z,226.98
2019-01-24T01:09:46.874Z,221.05
2019-01-24T01:13:11.143Z,224.02
2019-01-24T01:19:41.989Z,219.65
2019-01-24T01:26:13.028Z,216.33
2019-01-24T01:29:37.110Z,214.88
2019-01-24T01:36:08.035Z,211.90
2019-01-24T01:42:38.406Z,218.27
2019-01-24T01:49:09.060Z,220.22
2019-01-24T01:52:33.369Z,221.17
2019-01-24T01:59:04.140Z,221.28
2019-01-24T02:02:10.474Z,218.93
2019-01-24T02:08:41.606Z,225.35
2019-01-24T02:12:05.911Z,223.62
2019-01-24T02:18:36.537Z,223.93
2019-01-24T02:25:09.406Z,223.62
2019-01-24T02:28:34.170Z,223.05
2019-01-24T02:35:06.481Z,225.93
2019-01-24T02:41:37.451Z,224.10
2019-01-24T02:44:07.318Z,225.28
2019-01-24T02:50:38.263Z,225.15
2019-01-24T02:57:08.837Z,232.35
2019-01-24T03:00:33.353Z,234.55
2019-01-24T03:07:03.476Z,225.32
2019-01-24T03:13:34.012Z,228.85
2019-01-24T03:16:58.356Z,229.05
2019-01-24T03:23:28.974Z,230.87
2019-01-24T03:29:59.706Z,228.62
2019-01-24T03:33:23.936Z,228.65
2019-01-24T03:39:54.443Z,230.70
2019-01-24T03:42:24.627Z,232.43
2019-01-24T03:44:54.558Z,234.67
2019-01-24T03:51:25.445Z,228.80
2019-01-24T03:54:49.867Z,228.30
2019-01-24T04:01:20.881Z,229.20
2019-01-24T04:04:45.340Z,233.68
2019-01-24T04:11:16.463Z,228.90
2019-01-24T04:17:47.630Z,223.70
2019-01-24T04:21:12.005Z,224.98
2019-01-24T04:27:43.275Z,226.42
2019-01-24T04:34:14.063Z,226.82
2019-01-24T04:40:44.922Z,226.95
2019-01-24T04:47:16.079Z,221.80
2019-01-24T04:53:46.912Z,226.05
2019-01-24T05:00:25.313Z,218.42
2019-01-24T05:06:56.221Z,226.52
2019-01-24T05:10:20.838Z,221.30
2019-01-24T05:16:51.691Z,224.50
2019-01-24T05:20:16.042Z,225.07
2019-01-24T05:26:47.162Z,225.47
2019-01-24T05:33:18.103Z,227.35
2019-01-24T05:36:42.557Z,229.00
2019-01-24T05:43:13.912Z,227.32
2019-01-24T05:46:08.364Z,229.65
2019-01-24T05:48:38.301Z,226.75
2019-01-24T05:55:10.593Z,226.22
2019-01-24T06:01:41.719Z,223.93
2019-01-24T06:08:12.244Z,226.98
2019-01-24T06:14:42.922Z,224.00
2019-01-24T06:21:13.084Z,227.45
2019-01-24T06:27:43.596Z,217.90
2019-01-24T06:31:08.523Z,220.73
2019-01-24T06:37:39.545Z,220.65
2019-01-24T06:40:27.647Z,216.73
2019-01-24T06:47:00.144Z,221.40
2019-01-24T06:49:30.116Z,220.33
2019-01-24T06:56:01.138Z,222.55
2019-01-24T07:02:31.626Z,219.07
2019-01-24T07:09:02.641Z,220.70
2019-01-24T07:12:27.270Z,225.53
2019-01-24T07:18:59.734Z,220.02
2019-01-24T07:25:30.308Z,222.45
2019-01-24T07:28:54.863Z,225.28
2019-01-24T07:35:25.478Z,231.17
2019-01-24T07:41:56.768Z,233.17
2019-01-24T07:45:21.683Z,231.23
2019-01-24T07:51:52.846Z,228.75
2019-01-24T07:55:17.259Z,237.12
2019-01-24T08:01:47.784Z,232.00
2019-01-24T08:08:18.820Z,240.62
2019-01-24T08:11:43.411Z,236.75
2019-01-24T08:18:14.554Z,245.75
2019-01-24T08:24:44.993Z,242.57
2019-01-24T08:28:09.533Z,247.00
2019-01-24T08:34:40.615Z,243.50
2019-01-24T08:41:11.025Z,252.30
2019-01-24T08:47:41.943Z,256.13
2019-01-24T08:50:47.948Z,253.80
2019-01-24T08:53:18.063Z,252.07
2019-01-24T08:59:48.220Z,264.75
2019-01-24T09:06:22.568Z,265.60
2019-01-24T09:12:50.535Z,264.72
2019-01-24T09:16:14.874Z,269.45
2019-01-24T09:22:45.060Z,262.20
2019-01-24T09:29:15.131Z,261.62
2019-01-24T09:32:39.671Z,266.93
2019-01-24T09:39:10.803Z,254.37
2019-01-24T09:45:41.918Z,259.85
2019-01-24T09:49:06.269Z,260.20
2019-01-24T09:55:37.400Z,263.35
2019-01-24T10:02:08.202Z,263.50
2019-01-24T10:05:03.275Z,263.25
2019-01-24T10:11:33.264Z,263.00
2019-01-24T10:14:57.531Z,264.60
2019-01-24T10:21:28.199Z,267.27
2019-01-24T10:27:58.497Z,267.43
2019-01-24T10:31:23.137Z,266.33
2019-01-24T10:37:53.367Z,262.60
2019-01-24T10:44:23.900Z,264.10
2019-01-24T10:50:54.919Z,264.00
2019-01-24T10:54:19.165Z,257.02
2019-01-24T10:56:48.984Z,258.70
2019-01-24T11:03:19.638Z,265.27
2019-01-24T11:09:49.923Z,263.03
2019-01-24T11:16:20.979Z,260.25
2019-01-24T11:19:45.166Z,266.73
2019-01-24T11:26:15.507Z,266.48
2019-01-24T11:32:46.537Z,250.60
2019-01-24T11:36:11.014Z,245.15
2019-01-24T11:42:42.276Z,225.65
2019-01-24T11:49:13.429Z,217.93
2019-01-24T11:52:37.798Z,225.18
2019-01-24T11:59:08.392Z,214.57
2019-01-24T12:05:39.361Z,218.33
2019-01-24T12:09:04.109Z,220.47
2019-01-24T12:15:34.917Z,222.88
2019-01-24T12:18:59.327Z,227.78
2019-01-24T12:25:30.495Z,228.60
2019-01-24T12:32:01.313Z,226.92
2019-01-24T12:35:25.754Z,227.72
2019-01-24T12:41:57.276Z,223.22
2019-01-24T12:48:28.369Z,225.10
2019-01-24T12:51:52.447Z,226.75
2019-01-24T12:58:22.420Z,237.95
2019-01-24T13:00:52.310Z,237.20
2019-01-24T13:07:22.740Z,235.78
2019-01-24T13:13:52.646Z,236.68
2019-01-24T13:20:22.898Z,238.77
2019-01-24T13:26:53.143Z,240.00
2019-01-24T13:30:17.665Z,244.13
2019-01-24T13:36:48.522Z,245.27
2019-01-24T13:40:13.420Z,247.55
2019-01-24T13:46:44.367Z,247.80
2019-01-24T13:53:15.965Z,241.50
2019-01-24T13:56:40.585Z,243.57
2019-01-24T14:03:17.743Z,239.17
2019-01-24T14:09:48.531Z,230.20
2019-01-24T14:13:13.288Z,230.35
2019-01-24T14:19:43.646Z,232.80
2019-01-24T14:23:08.168Z,233.90
2019-01-24T14:29:38.499Z,238.20
2019-01-24T14:33:02.670Z,239.60
2019-01-24T14:39:33.837Z,252.90
2019-01-24T14:46:05.334Z,250.03
2019-01-24T14:49:29.933Z,254.65
2019-01-24T14:56:01.400Z,256.32
2019-01-24T14:59:26.259Z,253.50
2019-01-24T15:05:56.807Z,258.90
2019-01-24T15:12:27.322Z,263.75
2019-01-24T15:18:58.420Z,257.37
2019-01-24T15:22:22.920Z,259.25
2019-01-24T15:28:53.977Z,253.77
2019-01-24T15:32:18.233Z,255.65
2019-01-24T15:38:49.822Z,249.12
2019-01-24T15:45:20.880Z,245.02
2019-01-24T15:48:45.353Z,241.23
2019-01-24T15:55:16.305Z,243.50
2019-01-24T15:58:40.636Z,243.20
2019-01-24T16:05:13.067Z,248.90
2019-01-24T16:07:43.045Z,241.95
2019-01-24T16:14:14.389Z,242.93
2019-01-24T16:20:45.633Z,248.40
2019-01-24T16:27:16.161Z,244.07
2019-01-24T16:30:40.639Z,239.60
2019-01-24T16:37:11.620Z,244.93
2019-01-24T16:43:42.484Z,243.02
2019-01-24T16:50:18.889Z,234.07
2019-01-24T16:53:43.563Z,236.07
2019-01-24T17:00:26.317Z,233.57
2019-01-24T17:03:37.638Z,228.22
2019-01-24T17:10:16.451Z,242.10
2019-01-24T17:16:47.184Z,223.60
2019-01-24T17:20:11.128Z,224.27
2019-01-24T17:26:41.514Z,219.93
2019-01-24T17:30:06.323Z,220.57
2019-01-24T17:36:36.458Z,214.80
2019-01-24T17:43:07.190Z,209.15
2019-01-24T17:49:38.413Z,228.32
2019-01-24T17:53:02.790Z,242.50
2019-01-24T17:59:33.687Z,248.50
2019-01-24T18:02:58.411Z,257.10
2019-01-24T18:09:29.489Z,257.92
2019-01-24T18:11:59.404Z,253.77
2019-01-24T18:14:48.416Z,252.43
2019-01-24T18:17:34.886Z,245.80
2019-01-24T18:20:07.735Z,261.73
2019-01-24T18:22:37.599Z,257.15
2019-01-24T18:25:07.531Z,254.50
2019-01-24T18:28:32.097Z,263.52
2019-01-24T18:35:02.760Z,251.40
2019-01-24T18:41:34.147Z,249.98
2019-01-24T18:44:46.005Z,247.95
2019-01-24T18:51:16.453Z,256.17
2019-01-24T18:54:41.011Z,260.15
2019-01-24T19:01:11.071Z,246.70
2019-01-24T19:07:41.073Z,264.80
2019-01-24T19:14:11.385Z,254.90
2019-01-24T19:16:41.524Z,252.30
2019-01-24T19:23:12.008Z,239.77
2019-01-24T19:29:42.737Z,226.40
2019-01-24T19:36:13.770Z,214.80
2019-01-24T19:39:38.047Z,209.95
2019-01-24T19:46:09.160Z,198.23
2019-01-24T19:52:40.222Z,200.93
2019-01-24T19:59:11.490Z,190.62
2019-01-24T20:05:42.632Z,194.67
2019-01-24T20:12:13.575Z,193.35
2019-01-24T20:18:44.542Z,200.05
2019-01-24T20:25:17.804Z,177.10
2019-01-24T20:27:55.073Z,177.27
2019-01-24T20:34:25.586Z,176.25
2019-01-24T20:37:49.773Z,177.72
2019-01-24T20:44:20.067Z,176.85
2019-01-24T20:50:50.580Z,173.95
2019-01-24T20:54:15.422Z,176.30
2019-01-24T21:00:54.849Z,179.18
2019-01-24T21:07:24.999Z,171.72
2019-01-24T21:13:55.838Z,171.62
2019-01-24T21:20:29.154Z,173.87
2019-01-24T21:27:00.193Z,174.00
2019-01-24T21:33:31.147Z,166.47
2019-01-24T21:40:01.913Z,170.87
2019-01-24T21:43:26.179Z,172.20
2019-01-24T21:49:56.408Z,169.65
2019-01-24T21:56:27.098Z,167.87
2019-01-24T21:59:51.447Z,170.12
2019-01-24T22:06:21.842Z,171.02
2019-01-24T22:09:46.341Z,166.80
2019-01-24T22:16:17.243Z,166.03
2019-01-24T22:19:38.447Z,175.65
2019-01-24T22:22:08.475Z,169.10
2019-01-24T22:28:38.607Z,168.50
2019-01-24T22:35:09.050Z,172.57
2019-01-24T22:41:39.291Z,167.35
2019-01-24T22:45:03.499Z,168.45
2019-01-24T22:51:33.692Z,168.45
2019-01-24T22:54:58.048Z,166.57
2019-01-24T23:01:35.189Z,170.72
2019-01-24T23:04:59.773Z,163.90
2019-01-24T23:11:30.860Z,166.15
2019-01-24T23:14:55.124Z,167.13
2019-01-24T23:21:26.202Z,170.90
2019-01-24T23:27:56.694Z,172.47
2019-01-24T23:34:41.721Z,173.87
2019-01-24T23:45:16.159Z,186.12
2019-01-24T23:51:46.289Z,188.50
2019-01-24T23:55:10.433Z,186.37
